createdAt,value
2017-11-25T00:00:44.903Z,1008.07
2017-11-25T00:01:44.836Z,1008.00
2017-11-25T00:02:44.782Z,1007.99
2017-11-25T00:03:44.704Z,1008.01
2017-11-25T00:04:44.645Z,1008.01
2017-11-25T00:05:44.594Z,1008.00
2017-11-25T00:06:44.526Z,1008.03
2017-11-25T00:07:44.457Z,1008.03
2017-11-25T00:08:44.398Z,1008.08
2017-11-25T00:09:44.338Z,1008.05
2017-11-25T00:10:44.280Z,1008.08
2017-11-25T00:11:44.254Z,1008.06
2017-11-25T00:12:44.176Z,1008.10
2017-11-25T00:13:44.093Z,1008.13
2017-11-25T00:14:44.036Z,1008.11
2017-11-25T00:15:43.993Z,1008.16
2017-11-25T00:16:43.900Z,1008.19
2017-11-25T00:17:43.844Z,1008.18
2017-11-25T00:18:43.788Z,1008.19
2017-11-25T00:19:43.728Z,1008.23
2017-11-25T00:20:43.842Z,1008.26
2017-11-25T00:21:43.625Z,1008.31
2017-11-25T00:22:43.558Z,1008.33
2017-11-25T00:23:43.479Z,1008.32
2017-11-25T00:24:43.426Z,1008.35
2017-11-25T00:25:43.357Z,1008.35
2017-11-25T00:26:43.299Z,1008.39
2017-11-25T00:27:43.239Z,1008.40
2017-11-25T00:28:43.171Z,1008.31
2017-11-25T00:29:43.118Z,1008.28
2017-11-25T00:30:43.057Z,1008.25
2017-11-25T00:31:43.001Z,1008.19
2017-11-25T00:32:42.928Z,1008.12
2017-11-25T00:33:42.861Z,1008.11
2017-11-25T00:34:42.804Z,1008.07
2017-11-25T00:35:42.739Z,1008.03
2017-11-25T00:36:42.677Z,1008.05
2017-11-25T00:37:42.620Z,1008.01
2017-11-25T00:38:42.559Z,1008.04
2017-11-25T00:39:42.507Z,1008.01
2017-11-25T00:40:42.444Z,1008.08
2017-11-25T00:41:42.390Z,1008.10
2017-11-25T00:42:42.355Z,1008.12
2017-11-25T00:43:42.262Z,1008.13
2017-11-25T00:44:42.192Z,1008.07
2017-11-25T00:45:42.136Z,1007.97
2017-11-25T00:46:42.066Z,1008.01
2017-11-25T00:47:42.013Z,1008.01
2017-11-25T00:48:41.953Z,1007.98
2017-11-25T00:49:41.893Z,1008.05
2017-11-25T00:50:41.833Z,1008.04
2017-11-25T00:51:41.781Z,1008.00
2017-11-25T00:52:41.707Z,1007.97
2017-11-25T00:53:41.658Z,1007.95
2017-11-25T00:54:41.578Z,1007.97
2017-11-25T00:55:41.520Z,1007.93
2017-11-25T00:56:41.468Z,1007.92
2017-11-25T00:57:41.395Z,1007.95
2017-11-25T00:58:41.350Z,1007.90
2017-11-25T00:59:41.277Z,1007.94
2017-11-25T01:00:41.222Z,1007.96
2017-11-25T01:01:41.167Z,1007.89
2017-11-25T01:02:41.090Z,1007.89
2017-11-25T01:03:41.029Z,1007.83
2017-11-25T01:04:40.980Z,1007.77
2017-11-25T01:05:40.903Z,1007.81
2017-11-25T01:06:40.842Z,1007.79
2017-11-25T01:07:40.783Z,1007.76
2017-11-25T01:08:40.724Z,1007.79
2017-11-25T01:09:40.679Z,1007.87
2017-11-25T01:10:40.611Z,1007.81
2017-11-25T01:11:40.557Z,1007.80
2017-11-25T01:12:40.481Z,1007.77
2017-11-25T01:13:40.416Z,1007.77
2017-11-25T01:14:40.356Z,1007.79
2017-11-25T01:15:40.292Z,1007.76
2017-11-25T01:16:40.238Z,1007.78
2017-11-25T01:17:40.175Z,1007.75
2017-11-25T01:18:40.133Z,1007.72
2017-11-25T01:19:40.055Z,1007.65
2017-11-25T01:20:39.999Z,1007.65
2017-11-25T01:21:39.950Z,1007.65
2017-11-25T01:22:39.867Z,1007.64
2017-11-25T01:23:39.810Z,1007.60
2017-11-25T01:24:39.747Z,1007.56
2017-11-25T01:25:39.689Z,1007.53
2017-11-25T01:26:39.619Z,1007.56
2017-11-25T01:27:39.569Z,1007.57
2017-11-25T01:28:39.506Z,1007.56
2017-11-25T01:29:39.452Z,1007.56
2017-11-25T01:30:39.379Z,1007.64
2017-11-25T01:31:39.333Z,1007.59
2017-11-25T01:32:39.279Z,1007.52
2017-11-25T01:33:39.199Z,1007.51
2017-11-25T01:34:39.170Z,1007.57
2017-11-25T01:35:39.067Z,1007.58
2017-11-25T01:36:39.011Z,1007.60
2017-11-25T01:37:38.968Z,1007.60
2017-11-25T01:38:38.893Z,1007.55
2017-11-25T01:39:38.832Z,1007.52
2017-11-25T01:40:38.775Z,1007.55
2017-11-25T01:41:38.721Z,1007.50
2017-11-25T01:42:38.646Z,1007.52
2017-11-25T01:43:38.613Z,1007.47
2017-11-25T01:44:38.556Z,1007.49
2017-11-25T01:45:38.458Z,1007.43
2017-11-25T01:46:38.434Z,1007.42
2017-11-25T01:47:38.340Z,1007.42
2017-11-25T01:48:38.277Z,1007.43
2017-11-25T01:49:38.224Z,1007.46
2017-11-25T01:50:38.173Z,1007.48
2017-11-25T01:51:38.110Z,1007.48
2017-11-25T01:52:38.034Z,1007.49
2017-11-25T01:53:37.981Z,1007.43
2017-11-25T01:54:37.910Z,1007.35
2017-11-25T01:55:37.875Z,1007.38
2017-11-25T01:56:37.800Z,1007.36
2017-11-25T01:57:37.726Z,1007.35
2017-11-25T01:58:37.668Z,1007.31
2017-11-25T01:59:37.611Z,1007.35
2017-11-25T02:00:37.559Z,1007.31
2017-11-25T02:01:37.497Z,1007.34
2017-11-25T02:02:37.421Z,1007.32
2017-11-25T02:03:37.364Z,1007.35
2017-11-25T02:04:37.297Z,1007.37
2017-11-25T02:05:37.236Z,1007.34
2017-11-25T02:06:37.173Z,1007.34
2017-11-25T02:07:37.118Z,1007.31
2017-11-25T02:08:37.061Z,1007.31
2017-11-25T02:09:37.001Z,1007.31
2017-11-25T02:10:36.941Z,1007.27
2017-11-25T02:11:36.870Z,1007.29
2017-11-25T02:12:36.810Z,1007.29
2017-11-25T02:13:36.748Z,1007.24
2017-11-25T02:14:36.686Z,1007.29
2017-11-25T02:15:36.644Z,1007.29
2017-11-25T02:16:36.561Z,1007.30
2017-11-25T02:17:36.502Z,1007.32
2017-11-25T02:18:36.441Z,1007.31
2017-11-25T02:19:36.385Z,1007.31
2017-11-25T02:20:36.329Z,1007.24
2017-11-25T02:21:36.276Z,1007.25
2017-11-25T02:22:36.220Z,1007.18
2017-11-25T02:23:36.136Z,1007.21
2017-11-25T02:24:36.077Z,1007.16
2017-11-25T02:25:36.007Z,1007.18
2017-11-25T02:26:35.947Z,1007.15
2017-11-25T02:27:35.889Z,1007.11
2017-11-25T02:28:35.831Z,1007.13
2017-11-25T02:29:35.773Z,1007.11
2017-11-25T02:30:35.734Z,1007.13
2017-11-25T02:31:35.665Z,1007.10
2017-11-25T02:32:35.586Z,1007.09
2017-11-25T02:33:35.530Z,1007.13
2017-11-25T02:34:35.461Z,1007.14
2017-11-25T02:35:35.394Z,1007.14
2017-11-25T02:36:35.343Z,1007.08
2017-11-25T02:37:35.282Z,1007.08
2017-11-25T02:38:35.227Z,1007.03
2017-11-25T02:39:35.161Z,1007.02
2017-11-25T02:40:35.095Z,1006.97
2017-11-25T02:41:35.033Z,1006.99
2017-11-25T02:42:34.971Z,1006.94
2017-11-25T02:43:34.905Z,1006.94
2017-11-25T02:44:34.850Z,1006.88
2017-11-25T02:45:34.789Z,1006.86
2017-11-25T02:46:34.761Z,1006.81
2017-11-25T02:47:34.665Z,1006.77
2017-11-25T02:48:34.605Z,1006.75
2017-11-25T02:49:34.550Z,1006.68
2017-11-25T02:50:34.495Z,1006.68
2017-11-25T02:51:34.420Z,1006.68
2017-11-25T02:52:34.358Z,1006.66
2017-11-25T02:53:34.296Z,1006.67
2017-11-25T02:54:34.226Z,1006.68
2017-11-25T02:55:34.172Z,1006.67
2017-11-25T02:56:34.111Z,1006.69
2017-11-25T02:57:34.051Z,1006.67
2017-11-25T02:58:33.994Z,1006.65
2017-11-25T02:59:33.941Z,1006.63
2017-11-25T03:00:33.885Z,1006.59
2017-11-25T03:01:33.815Z,1006.55
2017-11-25T03:02:33.763Z,1006.51
2017-11-25T03:03:33.681Z,1006.47
2017-11-25T03:04:33.614Z,1006.44
2017-11-25T03:05:33.563Z,1006.42
2017-11-25T03:06:33.501Z,1006.40
2017-11-25T03:07:33.438Z,1006.40
2017-11-25T03:08:33.381Z,1006.41
2017-11-25T03:09:33.318Z,1006.40
2017-11-25T03:10:33.274Z,1006.39
2017-11-25T03:11:33.193Z,1006.41
2017-11-25T03:12:33.130Z,1006.36
2017-11-25T03:13:33.070Z,1006.28
2017-11-25T03:14:33.002Z,1006.30
2017-11-25T03:15:32.943Z,1006.28
2017-11-25T03:16:32.888Z,1006.29
2017-11-25T03:17:32.829Z,1006.25
2017-11-25T03:18:32.770Z,1006.25
2017-11-25T03:19:32.714Z,1006.26
2017-11-25T03:20:32.638Z,1006.22
2017-11-25T03:21:32.583Z,1006.20
2017-11-25T03:22:32.512Z,1006.21
2017-11-25T03:23:32.449Z,1006.13
2017-11-25T03:24:32.392Z,1006.09
2017-11-25T03:25:32.329Z,1006.12
2017-11-25T03:26:32.270Z,1006.07
2017-11-25T03:27:32.214Z,1006.03
2017-11-25T03:28:32.159Z,1006.06
2017-11-25T03:29:32.106Z,1006.03
2017-11-25T03:30:32.022Z,1006.05
2017-11-25T03:31:31.961Z,1006.06
2017-11-25T03:32:31.893Z,1006.00
2017-11-25T03:33:31.834Z,1005.98
2017-11-25T03:34:31.779Z,1006.00
2017-11-25T03:35:31.715Z,1005.94
2017-11-25T03:36:31.658Z,1005.94
2017-11-25T03:37:31.602Z,1005.87
2017-11-25T03:38:31.547Z,1005.89
2017-11-25T03:39:31.467Z,1005.89
2017-11-25T03:40:31.404Z,1005.81
2017-11-25T03:41:31.337Z,1005.80
2017-11-25T03:42:31.278Z,1005.81
2017-11-25T03:43:31.220Z,1005.78
2017-11-25T03:44:31.158Z,1005.81
2017-11-25T03:45:31.102Z,1005.85
2017-11-25T03:46:31.044Z,1005.81
2017-11-25T03:47:30.990Z,1005.81
2017-11-25T03:48:30.910Z,1005.79
2017-11-25T03:49:30.863Z,1005.76
2017-11-25T03:50:30.787Z,1005.73
2017-11-25T03:51:30.720Z,1005.73
2017-11-25T03:52:30.662Z,1005.77
2017-11-25T03:53:30.604Z,1005.77
2017-11-25T03:54:30.548Z,1005.76
2017-11-25T03:55:30.490Z,1005.67
2017-11-25T07:50:57.688Z,1002.23
2017-11-25T07:51:57.608Z,1002.19
2017-11-25T07:53:50.375Z,1002.18
2017-11-25T07:54:50.305Z,1002.16
2017-11-25T07:56:43.069Z,1002.16
2017-11-25T07:57:43.008Z,1002.14
2017-11-25T07:59:35.774Z,1002.08
2017-11-25T08:00:35.710Z,1002.11
2017-11-25T08:02:28.485Z,1002.14
2017-11-25T08:03:28.414Z,1002.18
2017-11-25T08:05:21.175Z,1002.22
2017-11-25T08:06:21.137Z,1002.22
2017-11-25T08:08:13.877Z,1002.15
2017-11-25T08:09:13.796Z,1002.11
2017-11-25T08:11:07.161Z,1002.06
2017-11-25T08:12:06.898Z,1002.05
2017-11-25T08:13:59.455Z,1002.01
2017-11-25T08:14:59.388Z,1001.97
2017-11-25T08:16:52.153Z,1001.98
2017-11-25T08:17:52.080Z,1001.98
2017-11-25T08:19:44.873Z,1001.94
2017-11-25T08:20:44.777Z,1001.94
2017-11-25T08:22:37.857Z,1001.86
2017-11-25T08:23:37.486Z,1001.81
2017-11-25T08:25:30.294Z,1001.79
2017-11-25T08:26:30.212Z,1001.80
2017-11-25T08:28:22.999Z,1001.80
2017-11-25T08:29:22.915Z,1001.81
2017-11-25T08:31:15.710Z,1001.78
2017-11-25T08:32:15.611Z,1001.76
2017-11-25T08:34:08.406Z,1001.70
2017-11-25T08:35:08.316Z,1001.73
2017-11-25T08:37:01.109Z,1001.71
2017-11-25T08:38:01.018Z,1001.69
2017-11-25T08:39:53.790Z,1001.76
2017-11-25T08:40:53.709Z,1001.77
2017-11-25T08:42:46.486Z,1001.79
2017-11-25T08:43:46.411Z,1001.80
2017-11-25T08:45:39.172Z,1001.76
2017-11-25T08:46:39.111Z,1001.77
2017-11-25T08:48:31.881Z,1001.76
2017-11-25T08:49:31.809Z,1001.81
2017-11-25T08:51:24.576Z,1001.84
2017-11-25T08:52:24.513Z,1001.80
2017-11-25T08:54:17.279Z,1001.82
2017-11-25T08:55:17.215Z,1001.82
2017-11-25T08:57:09.974Z,1001.84
2017-11-25T08:58:09.909Z,1001.79
2017-11-25T09:00:02.677Z,1001.79
2017-11-25T09:01:02.622Z,1001.76
2017-11-25T09:02:55.387Z,1001.75
2017-11-25T09:03:55.300Z,1001.75
2017-11-25T09:05:48.088Z,1001.75
2017-11-25T09:06:48.002Z,1001.76
2017-11-25T09:08:40.762Z,1001.71
2017-11-25T09:09:40.701Z,1001.74
2017-11-25T09:11:33.475Z,1001.69
2017-11-25T09:12:33.390Z,1001.72
2017-11-25T09:14:26.159Z,1001.67
2017-11-25T09:15:26.094Z,1001.63
2017-11-25T09:17:18.870Z,1001.62
2017-11-25T09:18:18.796Z,1001.63
2017-11-25T09:20:11.594Z,1001.62
2017-11-25T09:21:11.494Z,1001.61
2017-11-25T09:23:04.257Z,1001.57
2017-11-25T09:24:04.193Z,1001.58
2017-11-25T09:25:56.974Z,1001.58
2017-11-25T09:26:56.895Z,1001.57
2017-11-25T09:28:49.655Z,1001.54
2017-11-25T09:29:49.600Z,1001.57
2017-11-25T09:31:42.366Z,1001.55
2017-11-25T09:32:42.302Z,1001.56
2017-11-25T09:34:35.059Z,1001.52
2017-11-25T09:35:34.992Z,1001.50
2017-11-25T09:37:27.769Z,1001.50
2017-11-25T09:38:27.695Z,1001.54
2017-11-25T09:40:20.462Z,1001.50
2017-11-25T09:41:20.414Z,1001.52
2017-11-25T09:43:13.174Z,1001.42
2017-11-25T09:44:13.096Z,1001.47
2017-11-25T09:46:05.877Z,1001.39
2017-11-25T09:47:05.796Z,1001.40
2017-11-25T09:48:58.580Z,1001.36
2017-11-25T09:49:58.496Z,1001.33
2017-11-25T09:51:51.263Z,1001.33
2017-11-25T09:52:51.190Z,1001.28
2017-11-25T09:54:43.966Z,1001.31
2017-11-25T09:55:43.884Z,1001.31
2017-11-25T09:57:36.678Z,1001.35
2017-11-25T09:58:36.588Z,1001.30
2017-11-25T10:00:29.362Z,1001.29
2017-11-25T10:01:29.293Z,1001.28
2017-11-25T10:03:22.071Z,1001.30
2017-11-25T10:04:21.994Z,1001.28
2017-11-25T10:06:14.758Z,1001.29
2017-11-25T10:07:14.692Z,1001.25
2017-11-25T10:09:07.509Z,1001.22
2017-11-25T10:10:07.403Z,1001.17
2017-11-25T10:12:00.191Z,1001.20
2017-11-25T10:13:00.134Z,1001.18
2017-11-25T10:14:52.886Z,1001.13
2017-11-25T10:15:52.811Z,1001.12
2017-11-25T10:17:45.571Z,1001.17
2017-11-25T10:18:45.510Z,1001.17
2017-11-25T10:20:38.324Z,1001.15
2017-11-25T10:21:38.244Z,1001.16
2017-11-25T10:23:31.039Z,1001.16
2017-11-25T10:24:30.976Z,1001.16
2017-11-25T10:26:23.744Z,1001.13
2017-11-25T10:27:23.678Z,1001.13
2017-11-25T10:29:16.443Z,1001.12
2017-11-25T10:30:16.381Z,1001.08
2017-11-25T10:32:09.148Z,1001.14
2017-11-25T10:33:09.086Z,1001.16
2017-11-25T10:35:01.846Z,1001.14
2017-11-25T10:36:01.792Z,1001.13
2017-11-25T10:37:55.130Z,1001.11
2017-11-25T10:38:54.856Z,1001.08
2017-11-25T10:40:47.445Z,1001.07
2017-11-25T10:41:47.361Z,1001.07
2017-11-25T10:43:40.147Z,1001.10
2017-11-25T10:44:40.064Z,1001.12
2017-11-25T10:46:32.827Z,1001.12
2017-11-25T10:47:32.753Z,1001.18
2017-11-25T10:49:25.534Z,1001.15
2017-11-25T10:50:25.451Z,1001.19
2017-11-25T10:52:18.260Z,1001.16
2017-11-25T10:53:18.169Z,1001.24
2017-11-25T10:55:11.522Z,1001.21
2017-11-25T10:56:11.267Z,1001.16
2017-11-25T10:58:03.871Z,1001.15
2017-11-25T10:59:03.761Z,1001.17
2017-11-25T11:00:56.533Z,1001.20
2017-11-25T11:01:56.466Z,1001.20
2017-11-25T11:03:49.259Z,1001.23
2017-11-25T11:04:49.186Z,1001.31
2017-11-25T11:06:41.972Z,1001.29
2017-11-25T11:07:41.889Z,1001.34
2017-11-25T11:09:34.677Z,1001.32
2017-11-25T11:10:34.595Z,1001.27
2017-11-25T11:12:27.362Z,1001.32
2017-11-25T11:13:27.286Z,1001.27
2017-11-25T11:15:20.085Z,1001.29
2017-11-25T11:16:19.999Z,1001.30
2017-11-25T11:18:12.788Z,1001.30
2017-11-25T11:19:12.688Z,1001.29
2017-11-25T11:21:05.457Z,1001.32
2017-11-25T11:22:05.392Z,1001.34
2017-11-25T11:23:58.165Z,1001.34
2017-11-25T11:24:58.087Z,1001.37
2017-11-25T11:26:50.852Z,1001.32
2017-11-25T11:27:50.810Z,1001.38
2017-11-25T11:29:43.554Z,1001.38
2017-11-25T11:30:43.499Z,1001.36
2017-11-25T11:32:36.248Z,1001.44
2017-11-25T11:33:36.188Z,1001.40
2017-11-25T11:35:28.957Z,1001.50
2017-11-25T11:36:28.893Z,1001.43
2017-11-25T11:38:21.653Z,1001.40
2017-11-25T11:39:21.597Z,1001.42
2017-11-25T11:41:14.356Z,1001.37
2017-11-25T11:42:14.279Z,1001.34
2017-11-25T11:44:07.061Z,1001.40
2017-11-25T11:45:07.005Z,1001.45
2017-11-25T11:46:59.763Z,1001.46
2017-11-25T11:47:59.714Z,1001.46
2017-11-25T11:49:52.467Z,1001.48
2017-11-25T11:50:52.393Z,1001.50
2017-11-25T11:52:45.200Z,1001.46
2017-11-25T11:53:45.120Z,1001.49
2017-11-25T11:55:37.881Z,1001.46
2017-11-25T11:56:37.825Z,1001.45
2017-11-25T11:57:37.741Z,1001.49
2017-11-25T11:58:37.680Z,1001.42
2017-11-25T11:59:37.606Z,1001.43
2017-11-25T12:00:37.548Z,1001.43
2017-11-25T12:01:37.488Z,1001.43
2017-11-25T12:02:37.424Z,1001.49
2017-11-25T12:03:37.372Z,1001.44
2017-11-25T12:04:37.316Z,1001.52
2017-11-25T12:05:37.241Z,1001.44
2017-11-25T12:06:37.174Z,1001.40
2017-11-25T12:07:37.106Z,1001.38
2017-11-25T12:08:37.046Z,1001.37
2017-11-25T12:09:36.994Z,1001.36
2017-11-25T12:10:36.927Z,1001.37
2017-11-25T12:11:36.871Z,1001.36
2017-11-25T12:12:36.807Z,1001.32
2017-11-25T12:13:36.738Z,1001.32
2017-11-25T12:14:36.707Z,1001.31
2017-11-25T12:15:36.658Z,1001.37
2017-11-25T12:16:36.555Z,1001.36
2017-11-25T12:17:36.491Z,1001.40
2017-11-25T12:18:36.425Z,1001.36
2017-11-25T12:19:36.369Z,1001.43
2017-11-25T12:20:36.312Z,1001.42
2017-11-25T12:21:36.259Z,1001.43
2017-11-25T12:22:36.192Z,1001.46
2017-11-25T12:23:36.116Z,1001.49
2017-11-25T12:24:36.050Z,1001.44
2017-11-25T12:25:35.996Z,1001.48
2017-11-25T12:26:35.943Z,1001.54
2017-11-25T12:27:35.867Z,1001.51
2017-11-25T12:28:35.810Z,1001.54
2017-11-25T12:29:35.755Z,1001.58
2017-11-25T12:30:35.680Z,1001.61
2017-11-25T12:31:35.716Z,1001.62
2017-11-25T12:32:35.560Z,1001.63
2017-11-25T12:33:35.494Z,1001.63
2017-11-25T12:34:35.433Z,1001.63
2017-11-25T12:35:35.366Z,1001.60
2017-11-25T12:36:35.316Z,1001.68
2017-11-25T12:37:35.251Z,1001.64
2017-11-25T12:38:35.187Z,1001.65
2017-11-25T12:39:35.124Z,1001.66
2017-11-25T12:40:35.058Z,1001.69
2017-11-25T12:41:35.037Z,1001.65
2017-11-25T12:42:34.927Z,1001.66
2017-11-25T12:43:34.875Z,1001.60
2017-11-25T12:44:34.841Z,1001.51
2017-11-25T12:45:34.767Z,1001.47
2017-11-25T12:46:34.734Z,1001.46
2017-11-25T12:47:34.624Z,1001.49
2017-11-25T12:48:34.558Z,1001.44
2017-11-25T12:49:34.511Z,1001.44
2017-11-25T12:50:34.440Z,1001.43
2017-11-25T12:51:34.554Z,1001.41
2017-11-25T12:52:34.336Z,1001.43
2017-11-25T12:53:34.273Z,1001.45
2017-11-25T12:54:34.192Z,1001.44
2017-11-25T12:55:34.137Z,1001.43
2017-11-25T12:56:34.094Z,1001.52
2017-11-25T12:57:34.012Z,1001.54
2017-11-25T12:58:33.956Z,1001.57
2017-11-25T12:59:33.923Z,1001.55
2017-11-25T13:00:33.911Z,1001.55
2017-11-25T13:01:33.913Z,1001.54
2017-11-25T13:02:33.831Z,1001.55
2017-11-25T13:06:45.489Z,1001.61
2017-11-25T13:07:45.384Z,1001.63
2017-11-25T13:09:38.174Z,1001.59
2017-11-25T13:10:38.089Z,1001.61
2017-11-25T13:12:30.865Z,1001.63
2017-11-25T13:13:30.787Z,1001.67
2017-11-25T13:15:23.552Z,1001.63
2017-11-25T13:16:23.484Z,1001.59
2017-11-25T13:18:16.252Z,1001.59
2017-11-25T13:19:16.199Z,1001.56
2017-11-25T13:21:08.943Z,1001.58
2017-11-25T13:22:08.881Z,1001.61
2017-11-25T13:24:01.653Z,1001.54
2017-11-25T13:25:01.589Z,1001.55
2017-11-25T13:26:54.341Z,1001.67
2017-11-25T13:27:54.292Z,1001.73
2017-11-25T13:29:47.264Z,1001.67
2017-11-25T13:30:47.192Z,1001.74
2017-11-25T13:32:39.962Z,1001.86
2017-11-25T13:33:39.898Z,1001.90
2017-11-25T13:35:32.667Z,1001.92
2017-11-25T13:36:32.599Z,1001.90
2017-11-25T13:38:25.424Z,1001.94
2017-11-25T13:39:25.329Z,1001.97
2017-11-25T13:41:18.101Z,1001.97
2017-11-25T13:42:18.036Z,1002.02
2017-11-25T13:44:10.827Z,1002.05
2017-11-25T13:45:10.733Z,1002.11
2017-11-25T13:47:03.515Z,1002.18
2017-11-25T13:48:03.441Z,1002.31
2017-11-25T13:49:56.271Z,1002.35
2017-11-25T13:50:56.145Z,1002.38
2017-11-25T13:52:48.908Z,1002.44
2017-11-25T13:53:48.843Z,1002.48
2017-11-25T13:55:41.638Z,1002.43
2017-11-25T13:56:41.565Z,1002.41
2017-11-25T13:58:34.320Z,1002.49
2017-11-25T13:59:34.251Z,1002.48
2017-11-25T14:01:27.046Z,1002.50
2017-11-25T14:02:26.951Z,1002.46
2017-11-25T14:04:19.720Z,1002.44
2017-11-25T14:05:19.644Z,1002.41
2017-11-25T14:07:12.422Z,1002.37
2017-11-25T14:08:12.341Z,1002.35
2017-11-25T14:10:05.123Z,1002.41
2017-11-25T14:11:05.051Z,1002.41
2017-11-25T14:12:57.821Z,1002.45
2017-11-25T14:13:57.751Z,1002.46
2017-11-25T14:15:50.520Z,1002.44
2017-11-25T14:16:50.452Z,1002.44
2017-11-25T14:18:43.210Z,1002.53
2017-11-25T14:19:43.142Z,1002.56
2017-11-25T14:21:35.922Z,1002.56
2017-11-25T14:22:35.858Z,1002.59
2017-11-25T14:24:28.601Z,1002.61
2017-11-25T14:25:28.533Z,1002.72
2017-11-25T14:27:21.320Z,1002.78
2017-11-25T14:28:21.218Z,1002.78
2017-11-25T14:30:14.025Z,1002.75
2017-11-25T14:31:13.925Z,1002.76
2017-11-25T14:33:06.695Z,1002.76
2017-11-25T14:34:06.617Z,1002.70
2017-11-25T14:35:59.409Z,1002.74
2017-11-25T14:36:59.315Z,1002.74
2017-11-25T14:38:52.074Z,1002.73
2017-11-25T14:39:52.017Z,1002.71
2017-11-25T14:41:44.782Z,1002.77
2017-11-25T14:42:44.720Z,1002.82
2017-11-25T14:44:37.480Z,1002.83
2017-11-25T14:45:37.398Z,1002.82
2017-11-25T14:47:30.190Z,1002.92
2017-11-25T14:48:30.105Z,1002.91
2017-11-25T14:50:22.886Z,1002.87
2017-11-25T14:51:22.806Z,1002.93
2017-11-25T14:53:15.566Z,1002.96
2017-11-25T14:54:15.507Z,1002.99
2017-11-25T14:56:08.260Z,1003.07
2017-11-25T14:57:08.186Z,1003.12
2017-11-25T14:59:00.959Z,1003.13
2017-11-25T15:00:00.890Z,1003.14
2017-11-25T15:01:53.646Z,1003.12
2017-11-25T15:02:53.576Z,1003.11
2017-11-25T15:04:46.351Z,1003.13
2017-11-25T15:05:46.267Z,1003.14
2017-11-25T15:07:39.087Z,1003.17
2017-11-25T15:08:38.990Z,1003.19
2017-11-25T15:10:31.787Z,1003.19
2017-11-25T15:11:31.742Z,1003.18
2017-11-25T15:13:24.543Z,1003.16
2017-11-25T15:14:24.405Z,1003.18
2017-11-25T15:16:17.227Z,1003.28
2017-11-25T15:17:17.134Z,1003.28
2017-11-25T15:19:10.810Z,1003.36
2017-11-25T15:20:10.756Z,1003.38
2017-11-25T15:22:03.543Z,1003.40
2017-11-25T15:23:03.457Z,1003.42
2017-11-25T15:26:47.861Z,1003.45
2017-11-25T15:27:47.932Z,1003.46
2017-11-25T15:29:40.475Z,1003.40
2017-11-25T15:30:40.397Z,1003.45
2017-11-25T15:32:33.181Z,1003.54
2017-11-25T15:33:33.174Z,1003.57
2017-11-25T15:34:33.049Z,1003.62
2017-11-25T15:35:33.027Z,1003.66
2017-11-25T15:36:32.915Z,1003.65
2017-11-25T15:37:32.867Z,1003.68
2017-11-25T15:38:32.801Z,1003.73
2017-11-25T15:39:32.731Z,1003.74
2017-11-25T15:40:32.679Z,1003.77
2017-11-25T15:41:32.607Z,1003.76
2017-11-25T15:42:32.549Z,1003.74
2017-11-25T15:43:32.473Z,1003.76
2017-11-25T15:44:32.411Z,1003.76
2017-11-25T15:45:32.350Z,1003.78
2017-11-25T15:46:32.287Z,1003.86
2017-11-25T15:47:32.232Z,1003.90
2017-11-25T15:48:32.202Z,1003.89
2017-11-25T15:49:32.126Z,1003.93
2017-11-25T15:50:32.067Z,1003.96
2017-11-25T15:51:31.994Z,1003.97
2017-11-25T15:52:31.912Z,1003.98
2017-11-25T15:53:31.900Z,1003.98
2017-11-25T15:54:31.789Z,1004.04
2017-11-25T15:55:31.726Z,1004.06
2017-11-25T15:56:31.687Z,1004.02
2017-11-25T15:57:31.597Z,1004.04
2017-11-25T15:58:31.589Z,1004.05
2017-11-25T15:59:31.547Z,1004.08
2017-11-25T16:00:31.399Z,1004.10
2017-11-25T16:01:31.359Z,1004.13
2017-11-25T16:02:31.278Z,1004.13
2017-11-25T16:03:31.287Z,1004.14
2017-11-25T16:04:31.313Z,1004.18
2017-11-25T16:05:31.100Z,1004.24
2017-11-25T16:06:31.037Z,1004.26
2017-11-25T16:07:31.001Z,1004.24
2017-11-25T16:08:30.962Z,1004.30
2017-11-25T16:09:30.853Z,1004.32
2017-11-25T16:10:30.854Z,1004.36
2017-11-25T16:11:30.723Z,1004.40
2017-11-25T16:12:30.671Z,1004.39
2017-11-25T16:13:30.615Z,1004.43
2017-11-25T16:14:30.599Z,1004.41
2017-11-25T16:15:30.474Z,1004.44
2017-11-25T16:16:30.404Z,1004.49
2017-11-25T16:17:30.364Z,1004.48
2017-11-25T16:18:30.303Z,1004.54
2017-11-25T16:19:30.247Z,1004.54
2017-11-25T16:20:30.198Z,1004.49
2017-11-25T16:21:30.079Z,1004.50
2017-11-25T16:22:30.017Z,1004.59
2017-11-25T16:23:29.949Z,1004.61
2017-11-25T16:24:29.892Z,1004.59
2017-11-25T16:25:29.827Z,1004.63
2017-11-25T16:26:29.769Z,1004.63
2017-11-25T16:27:30.209Z,1004.63
2017-11-25T16:28:29.633Z,1004.64
2017-11-25T16:29:29.578Z,1004.71
2017-11-25T16:30:29.510Z,1004.75
2017-11-25T16:31:30.207Z,1004.77
2017-11-25T16:32:29.393Z,1004.76
2017-11-25T16:33:29.324Z,1004.74
2017-11-25T16:34:30.710Z,1004.75
2017-11-25T16:35:29.217Z,1004.75
2017-11-25T16:36:29.168Z,1004.74
2017-11-25T16:37:29.078Z,1004.70
2017-11-25T16:38:29.001Z,1004.68
2017-11-25T16:39:28.942Z,1004.67
2017-11-25T16:40:29.709Z,1004.67
2017-11-25T16:41:28.817Z,1004.69
2017-11-25T16:42:28.753Z,1004.69
2017-11-25T16:43:28.708Z,1004.68
2017-11-25T16:44:28.630Z,1004.67
2017-11-25T16:45:28.567Z,1004.64
2017-11-25T16:46:28.498Z,1004.62
2017-11-25T16:47:28.437Z,1004.62
2017-11-25T16:48:28.378Z,1004.63
2017-11-25T16:49:29.212Z,1004.64
2017-11-25T16:50:28.260Z,1004.66
2017-11-25T16:51:28.205Z,1004.69
2017-11-25T16:52:28.714Z,1004.71
2017-11-25T16:53:28.718Z,1004.69
2017-11-25T16:54:28.712Z,1004.73
2017-11-25T16:55:27.932Z,1004.70
2017-11-25T16:56:28.717Z,1004.71
2017-11-25T16:57:27.818Z,1004.72
2017-11-25T16:58:28.716Z,1004.70
2017-11-25T16:59:27.694Z,1004.67
2017-11-25T17:00:27.614Z,1004.71
2017-11-25T17:01:28.215Z,1004.68
2017-11-25T17:02:29.224Z,1004.70
2017-11-25T17:03:27.431Z,1004.69
2017-11-25T17:04:28.214Z,1004.70
2017-11-25T17:05:27.300Z,1004.71
2017-11-25T17:06:27.254Z,1004.71
2017-11-25T17:07:27.715Z,1004.74
2017-11-25T17:08:27.721Z,1004.74
2017-11-25T17:09:27.065Z,1004.78
2017-11-25T17:10:26.992Z,1004.75
2017-11-25T17:11:27.715Z,1004.75
2017-11-25T17:12:26.869Z,1004.72
2017-11-25T17:13:26.808Z,1004.68
2017-11-25T17:14:26.759Z,1004.74
2017-11-25T17:15:27.223Z,1004.74
2017-11-25T17:16:27.219Z,1004.76
2017-11-25T17:17:27.247Z,1004.74
2017-11-25T17:18:26.479Z,1004.77
2017-11-25T17:19:26.418Z,1004.78
2017-11-25T17:20:26.360Z,1004.86
2017-11-25T17:21:26.345Z,1004.85
2017-11-25T17:22:26.234Z,1004.84
2017-11-25T17:23:26.719Z,1004.90
2017-11-25T17:24:26.720Z,1004.91
2017-11-25T17:25:26.043Z,1004.94
2017-11-25T17:26:26.029Z,1005.01
2017-11-25T17:27:25.921Z,1004.98
2017-11-25T17:28:25.857Z,1005.04
2017-11-25T17:29:26.727Z,1005.06
2017-11-25T17:30:25.745Z,1005.05
2017-11-25T17:31:26.221Z,1005.06
2017-11-25T17:32:25.606Z,1005.03
2017-11-25T17:33:25.559Z,1005.07
2017-11-25T17:34:26.219Z,1005.09
2017-11-25T17:35:27.220Z,1005.07
2017-11-25T17:36:26.221Z,1005.06
2017-11-25T17:37:26.223Z,1005.14
2017-11-25T17:38:25.246Z,1005.16
2017-11-25T17:39:25.182Z,1005.15
2017-11-25T17:40:25.103Z,1005.15
2017-11-25T17:41:25.036Z,1005.20
2017-11-25T17:42:24.986Z,1005.23
2017-11-25T17:43:25.724Z,1005.23
2017-11-25T17:44:24.849Z,1005.27
2017-11-25T17:45:24.796Z,1005.26
2017-11-25T17:46:24.758Z,1005.25
2017-11-25T17:47:25.221Z,1005.25
2017-11-25T17:48:25.224Z,1005.31
2017-11-25T17:49:24.539Z,1005.33
2017-11-25T17:50:25.236Z,1005.31
2017-11-25T17:51:25.225Z,1005.34
2017-11-25T17:52:25.223Z,1005.33
2017-11-25T17:53:25.224Z,1005.30
2017-11-25T17:54:24.238Z,1005.34
2017-11-25T17:55:24.723Z,1005.41
2017-11-25T17:56:24.100Z,1005.39
2017-11-25T17:57:24.723Z,1005.43
2017-11-25T17:58:23.975Z,1005.42
2017-11-25T17:59:25.226Z,1005.46
2017-11-25T18:00:24.725Z,1005.45
2017-11-25T18:01:23.791Z,1005.49
2017-11-25T18:02:23.735Z,1005.46
2017-11-25T18:03:23.660Z,1005.48